Terminal Aerodrome Forecast
Issued by NWS Portland, OR

Home | Current Version | Previous Version | Text Only | Print | Product List | Glossary On
Versions: 1 2 3 4 5 6 7 8 9 10 11 12 13 14 15 16 17 18 19
000
FTUS46 KPQR 280542
TAFHIO
TAF
KHIO 280542Z 2806/0106 19006KT P6SM -SHRA SCT035 BKN050
      TEMPO 2806/2808 BKN030
     FM280900 22007KT P6SM -SHRA BKN018 OVC035
     FM281200 22005KT P6SM VCSH OVC015
     FM282000 23006KT P6SM VCSH SCT025 BKN035
     FM010400 19007KT P6SM -SHRA SCT035 OVC050=

USA.gov is the U.S. government's official web portal to all federal, state and local government web resources and services.